createdAt,value
2023-03-18T00:01:11.774Z,9.57
2023-03-18T00:03:38.717Z,10.25
2023-03-18T00:06:12.967Z,12.05
2023-03-18T00:08:41.132Z,7.90
2023-03-18T00:11:11.379Z,8.68
2023-03-18T00:13:38.165Z,9.40
2023-03-18T00:16:06.762Z,9.30
2023-03-18T00:18:36.629Z,11.50
2023-03-18T00:21:07.172Z,11.48
2023-03-18T00:23:34.624Z,12.95
2023-03-18T00:26:02.261Z,10.77
2023-03-18T00:28:32.592Z,10.60
2023-03-18T00:31:10.995Z,9.45
2023-03-18T00:33:40.027Z,11.63
2023-03-18T00:36:10.075Z,7.80
2023-03-18T00:38:42.165Z,7.22
2023-03-18T00:41:13.847Z,7.03
2023-03-18T00:43:52.237Z,10.65
2023-03-18T00:46:27.870Z,9.20
2023-03-18T00:48:56.846Z,8.02
2023-03-18T00:51:27.654Z,9.10
2023-03-18T00:53:57.431Z,9.98
2023-03-18T00:56:28.030Z,12.48
2023-03-18T00:58:55.045Z,9.23
2023-03-18T01:01:24.945Z,12.90
2023-03-18T01:03:54.906Z,10.68
2023-03-18T01:06:32.514Z,7.03
2023-03-18T01:09:04.590Z,9.48
2023-03-18T01:11:31.897Z,11.57
2023-03-18T01:13:59.576Z,13.98
2023-03-18T01:16:26.377Z,7.80
2023-03-18T01:18:56.312Z,8.57
2023-03-18T01:21:23.297Z,12.57
2023-03-18T01:23:52.139Z,9.63
2023-03-18T01:26:21.132Z,11.13
2023-03-18T01:28:48.111Z,13.43
2023-03-18T01:31:15.481Z,13.52
2023-03-18T01:33:45.390Z,10.38
2023-03-18T01:36:12.463Z,11.50
2023-03-18T01:38:42.294Z,10.43
2023-03-18T01:41:09.958Z,9.82
2023-03-18T01:43:43.458Z,9.35
2023-03-18T01:46:43.518Z,11.05
2023-03-18T01:49:20.611Z,12.25
2023-03-18T01:51:57.633Z,10.30
2023-03-18T01:54:31.983Z,9.82
2023-03-18T01:56:59.209Z,10.80
2023-03-18T01:59:31.619Z,8.80
2023-03-18T02:02:10.231Z,9.88
2023-03-18T02:04:45.320Z,9.02
2023-03-18T02:07:18.934Z,9.88
2023-03-18T02:09:50.605Z,11.38
2023-03-18T02:12:24.467Z,11.10
2023-03-18T02:14:53.012Z,8.15
2023-03-18T02:17:27.086Z,11.85
2023-03-18T02:20:32.199Z,10.57
2023-03-18T02:23:22.454Z,10.55
2023-03-18T02:26:06.738Z,13.40
2023-03-18T02:28:35.292Z,11.70
2023-03-18T02:31:09.408Z,12.82
2023-03-18T02:33:41.844Z,11.38
2023-03-18T02:36:28.303Z,12.25
2023-03-18T02:38:56.625Z,9.40
2023-03-18T02:41:29.794Z,11.55
2023-03-18T02:44:01.840Z,12.00
2023-03-18T02:46:57.722Z,14.70
2023-03-18T02:49:27.626Z,12.77
2023-03-18T02:51:56.570Z,13.18
2023-03-18T02:54:29.273Z,15.18
2023-03-18T02:57:01.454Z,11.25
2023-03-18T02:59:28.729Z,10.45
2023-03-18T03:01:58.135Z,14.15
2023-03-18T03:04:28.200Z,12.38
2023-03-18T03:07:01.343Z,13.73
2023-03-18T03:09:28.762Z,9.63
2023-03-18T03:11:55.461Z,13.77
2023-03-18T03:14:24.388Z,13.60
2023-03-18T03:16:53.583Z,13.48
2023-03-18T03:19:28.593Z,15.95
2023-03-18T03:21:57.396Z,13.77
2023-03-18T03:24:26.538Z,12.00
2023-03-18T03:26:55.777Z,18.25
2023-03-18T03:29:24.985Z,19.60
2023-03-18T03:31:51.737Z,13.13
2023-03-18T03:34:19.497Z,15.48
2023-03-18T03:36:48.602Z,11.98
2023-03-18T03:39:15.246Z,14.70
2023-03-18T03:41:41.877Z,15.52
2023-03-18T03:44:08.509Z,14.13
2023-03-18T03:46:37.609Z,15.48
2023-03-18T03:49:05.470Z,11.55
2023-03-18T03:51:32.326Z,15.52
2023-03-18T03:54:01.780Z,12.80
2023-03-18T03:56:31.494Z,10.70
2023-03-18T03:58:58.183Z,10.60
2023-03-18T04:01:24.846Z,14.45
2023-03-18T04:03:51.605Z,13.82
2023-03-18T04:06:20.913Z,14.70
2023-03-18T04:08:52.293Z,14.40
2023-03-18T04:11:21.841Z,10.50
2023-03-18T04:13:48.800Z,12.90
2023-03-18T04:16:18.536Z,15.43
2023-03-18T04:18:47.353Z,16.65
2023-03-18T04:21:14.783Z,12.35
2023-03-18T04:23:43.841Z,12.15
2023-03-18T04:26:13.022Z,12.07
2023-03-18T04:28:40.324Z,12.07
2023-03-18T04:31:09.522Z,13.15
2023-03-18T04:33:36.306Z,18.00
2023-03-18T04:36:03.018Z,12.73
2023-03-18T04:38:31.961Z,11.35
2023-03-18T04:40:58.687Z,13.63
2023-03-18T04:43:25.312Z,13.70
2023-03-18T04:45:51.953Z,14.82
2023-03-18T04:48:21.430Z,11.90
2023-03-18T04:50:48.318Z,13.82
2023-03-18T04:53:14.945Z,14.27
2023-03-18T04:55:41.728Z,11.88
2023-03-18T04:58:10.614Z,15.40
2023-03-18T05:00:37.347Z,13.27
2023-03-18T05:03:07.327Z,11.23
2023-03-18T05:05:38.576Z,12.38
2023-03-18T05:08:05.763Z,12.73
2023-03-18T05:10:32.397Z,12.93
2023-03-18T05:12:59.306Z,13.25
2023-03-18T05:15:30.803Z,16.00
2023-03-18T05:18:00.008Z,15.82
2023-03-18T05:20:26.729Z,10.98
2023-03-18T05:22:53.890Z,13.02
2023-03-18T05:25:21.473Z,11.60
2023-03-18T05:27:54.347Z,12.00
2023-03-18T05:30:23.886Z,11.88
2023-03-18T05:32:53.629Z,10.15
2023-03-18T05:35:20.351Z,12.02
2023-03-18T05:37:49.185Z,15.73
2023-03-18T05:40:18.064Z,13.05
2023-03-18T05:42:55.912Z,12.27
2023-03-18T05:45:23.883Z,11.48
2023-03-18T05:47:50.817Z,12.10
2023-03-18T05:50:39.574Z,9.65
2023-03-18T05:53:09.286Z,12.55
2023-03-18T05:55:36.440Z,12.93
2023-03-18T05:58:03.920Z,11.88
2023-03-18T06:00:33.399Z,13.02
2023-03-18T06:03:02.593Z,13.18
2023-03-18T06:05:31.058Z,10.93
2023-03-18T06:08:03.181Z,12.43
2023-03-18T06:10:29.985Z,11.57
2023-03-18T06:12:59.159Z,12.40
2023-03-18T06:15:28.078Z,14.00
2023-03-18T06:17:54.730Z,10.85
2023-03-18T06:20:21.518Z,12.13
2023-03-18T06:22:53.894Z,10.60
2023-03-18T06:25:23.917Z,9.45
2023-03-18T06:27:53.109Z,11.45
2023-03-18T06:30:19.944Z,12.55
2023-03-18T06:32:51.625Z,13.00
2023-03-18T06:35:20.776Z,11.82
2023-03-18T06:37:50.135Z,10.40
2023-03-18T06:40:17.352Z,9.93
2023-03-18T06:42:46.494Z,8.65
2023-03-18T06:45:13.802Z,9.90
2023-03-18T06:47:41.035Z,13.18
2023-03-18T06:50:11.133Z,10.52
2023-03-18T06:52:38.297Z,13.32
2023-03-18T06:55:09.340Z,11.88
2023-03-18T06:57:36.094Z,9.95
2023-03-18T07:00:04.898Z,9.55
2023-03-18T07:02:39.375Z,9.88
2023-03-18T07:05:08.987Z,13.17
2023-03-18T07:07:37.644Z,8.25
2023-03-18T07:10:09.559Z,10.75
2023-03-18T07:12:36.911Z,11.60
2023-03-18T07:15:04.168Z,13.48
2023-03-18T07:17:30.925Z,10.90
2023-03-18T07:20:00.062Z,11.13
2023-03-18T07:22:29.178Z,11.82
2023-03-18T07:24:57.996Z,11.60
2023-03-18T07:27:24.689Z,8.75
2023-03-18T07:29:51.473Z,8.55
2023-03-18T07:32:19.132Z,8.77
2023-03-18T07:34:50.102Z,9.10
2023-03-18T07:37:16.965Z,9.57
2023-03-18T07:39:45.847Z,10.25
2023-03-18T07:42:17.635Z,11.20
2023-03-18T07:44:44.323Z,10.15
2023-03-18T07:47:14.539Z,10.40
2023-03-18T07:49:41.642Z,8.10
2023-03-18T07:52:09.374Z,5.55
2023-03-18T07:54:38.482Z,6.25
2023-03-18T07:57:07.672Z,8.60
2023-03-18T07:59:34.449Z,7.25
2023-03-18T08:02:01.453Z,9.27
2023-03-18T08:04:31.087Z,8.65
2023-03-18T08:06:58.226Z,8.23
2023-03-18T08:09:25.107Z,5.97
2023-03-18T08:11:54.490Z,9.18
2023-03-18T08:14:26.003Z,7.63
2023-03-18T08:16:52.830Z,10.45
2023-03-18T08:19:19.440Z,9.23
2023-03-18T08:21:46.100Z,7.75
2023-03-18T08:24:12.766Z,7.40
2023-03-18T08:26:39.910Z,6.22
2023-03-18T08:29:06.654Z,6.47
2023-03-18T08:31:35.816Z,7.03
2023-03-18T08:34:05.071Z,7.32
2023-03-18T08:36:32.102Z,6.38
2023-03-18T08:39:01.801Z,8.52
2023-03-18T08:41:30.948Z,7.88
2023-03-18T08:44:01.928Z,7.13
2023-03-18T08:46:29.689Z,5.47
2023-03-18T08:48:59.681Z,6.45
2023-03-18T08:51:26.808Z,5.80
2023-03-18T08:53:54.351Z,5.53
2023-03-18T08:56:23.928Z,7.07
2023-03-18T08:58:51.094Z,5.55
2023-03-18T09:01:21.858Z,8.02
2023-03-18T09:03:49.697Z,6.07
2023-03-18T09:06:18.760Z,6.03
2023-03-18T09:08:47.815Z,4.95
2023-03-18T09:11:17.833Z,8.25
2023-03-18T09:13:46.969Z,8.70
2023-03-18T09:16:16.039Z,5.85
2023-03-18T09:18:45.259Z,4.05
2023-03-18T09:21:12.594Z,4.93
2023-03-18T09:23:39.256Z,7.82
2023-03-18T09:26:05.908Z,5.03
2023-03-18T09:28:34.786Z,10.35
2023-03-18T09:31:01.723Z,4.00
2023-03-18T09:33:30.637Z,4.95
2023-03-18T09:36:01.947Z,4.28
2023-03-18T09:38:31.518Z,7.03
2023-03-18T09:41:38.713Z,5.50
2023-03-18T09:44:20.140Z,5.25
2023-03-18T09:47:22.262Z,5.97
2023-03-18T09:50:04.254Z,6.63
2023-03-18T09:52:47.030Z,4.38
2023-03-18T09:55:49.424Z,3.97
2023-03-18T09:58:35.007Z,6.20
2023-03-18T10:01:07.241Z,7.18
2023-03-18T10:03:51.118Z,5.85
2023-03-18T10:06:23.682Z,4.95
2023-03-18T10:09:05.116Z,6.35
2023-03-18T10:11:36.682Z,7.90
2023-03-18T10:14:25.082Z,5.47
2023-03-18T10:16:55.574Z,5.43
2023-03-18T10:19:22.590Z,5.82
2023-03-18T10:22:33.142Z,7.03
2023-03-18T10:25:30.890Z,7.60
2023-03-18T10:28:18.166Z,5.80
2023-03-18T10:31:00.196Z,5.60
2023-03-18T10:33:54.256Z,6.07
2023-03-18T10:36:39.951Z,6.32
2023-03-18T10:39:15.368Z,8.85
2023-03-18T10:44:22.353Z,10.95
2023-03-18T10:47:29.062Z,9.80
2023-03-18T10:52:54.234Z,6.18
2023-03-18T10:55:27.384Z,5.70
2023-03-18T10:57:54.422Z,6.53
2023-03-18T11:00:26.671Z,6.10
2023-03-18T11:02:54.738Z,4.47
2023-03-18T11:05:33.635Z,7.72
2023-03-18T11:08:03.485Z,5.93
2023-03-18T11:10:35.651Z,5.40
2023-03-18T11:13:06.451Z,4.55
2023-03-18T11:15:50.128Z,4.32
2023-03-18T11:18:19.929Z,4.05
2023-03-18T11:20:48.055Z,4.50
2023-03-18T11:23:48.556Z,4.47
2023-03-18T11:26:23.698Z,4.97
2023-03-18T11:28:59.159Z,4.40
2023-03-18T11:31:27.895Z,5.38
2023-03-18T11:34:01.885Z,5.93
2023-03-18T11:36:32.229Z,5.30
2023-03-18T11:39:03.867Z,3.45
2023-03-18T11:41:32.912Z,6.95
2023-03-18T11:44:07.507Z,3.58
2023-03-18T11:47:20.741Z,6.00
2023-03-18T11:49:47.525Z,3.72
2023-03-18T11:52:38.972Z,4.70
2023-03-18T11:55:42.217Z,3.63
2023-03-18T11:58:38.496Z,4.13
2023-03-18T12:01:21.037Z,4.80
2023-03-18T12:04:21.883Z,5.45
2023-03-18T12:06:59.300Z,3.10
2023-03-18T12:09:38.575Z,4.63
2023-03-18T12:12:06.745Z,4.35
2023-03-18T12:14:47.783Z,2.92
2023-03-18T12:17:35.870Z,4.72
2023-03-18T12:20:04.210Z,4.68
2023-03-18T12:22:47.643Z,6.63
2023-03-18T12:25:50.536Z,3.60
2023-03-18T12:28:17.118Z,3.60
2023-03-18T12:30:59.773Z,2.95
2023-03-18T12:33:55.157Z,4.35
2023-03-18T12:36:44.336Z,3.38
2023-03-18T12:39:31.181Z,5.30
2023-03-18T12:42:25.160Z,5.38
2023-03-18T12:45:02.203Z,4.65
2023-03-18T12:47:47.965Z,3.10
2023-03-18T12:50:33.173Z,3.53
2023-03-18T12:53:04.993Z,4.82
2023-03-18T12:55:39.587Z,3.40
2023-03-18T12:58:14.118Z,3.95
2023-03-18T13:00:59.434Z,4.38
2023-03-18T13:03:41.734Z,3.65
2023-03-18T13:06:20.815Z,4.82
2023-03-18T13:09:06.765Z,4.13
2023-03-18T13:11:59.628Z,8.50
2023-03-18T13:15:13.923Z,4.68
2023-03-18T13:17:44.523Z,5.55
2023-03-18T13:20:21.149Z,6.93
2023-03-18T13:23:02.787Z,5.07
2023-03-18T13:25:57.687Z,6.15
2023-03-18T13:29:00.933Z,6.45
2023-03-18T13:31:49.692Z,7.82
2023-03-18T13:34:38.361Z,4.57
2023-03-18T13:37:12.232Z,4.95
2023-03-18T13:40:00.755Z,4.95
2023-03-18T13:42:38.949Z,4.55
2023-03-18T13:45:24.343Z,5.75
2023-03-18T13:48:22.709Z,5.28
2023-03-18T13:50:51.775Z,5.43
2023-03-18T13:53:26.523Z,4.82
2023-03-18T13:55:58.133Z,4.90
2023-03-18T13:58:32.778Z,5.05
2023-03-18T14:01:24.195Z,7.68
2023-03-18T14:03:51.082Z,5.10
2023-03-18T14:06:32.890Z,9.70
2023-03-18T14:09:25.379Z,6.25
2023-03-18T14:11:55.624Z,7.13
2023-03-18T14:14:42.299Z,5.13
2023-03-18T14:17:18.259Z,7.20
2023-03-18T14:19:48.239Z,5.38
2023-03-18T14:22:33.737Z,6.43
2023-03-18T14:25:22.058Z,5.18
2023-03-18T14:28:01.496Z,6.18
2023-03-18T14:30:34.649Z,6.00
2023-03-18T14:33:25.701Z,8.32
2023-03-18T14:36:03.186Z,5.25
2023-03-18T14:38:47.812Z,3.60
2023-03-18T14:41:22.325Z,5.22
2023-03-18T14:44:03.104Z,4.43
2023-03-18T14:46:37.227Z,3.80
2023-03-18T14:49:41.826Z,4.35
2023-03-18T14:52:38.686Z,6.00
2023-03-18T14:55:14.090Z,4.75
2023-03-18T14:57:44.072Z,5.78
2023-03-18T15:00:24.839Z,5.68
2023-03-18T15:03:03.484Z,7.20
2023-03-18T15:05:40.826Z,3.92
2023-03-18T15:08:12.885Z,6.10
2023-03-18T15:10:40.125Z,5.50
2023-03-18T15:13:12.290Z,7.32
2023-03-18T15:15:39.561Z,5.32
2023-03-18T15:18:18.450Z,4.00
2023-03-18T15:20:51.160Z,7.10
2023-03-18T15:23:31.448Z,5.53
2023-03-18T15:25:58.278Z,7.75
2023-03-18T15:28:28.268Z,8.10
2023-03-18T15:30:58.443Z,6.82
2023-03-18T15:33:38.409Z,5.10
2023-03-18T15:36:19.999Z,5.28
2023-03-18T15:38:48.587Z,5.40
2023-03-18T15:41:21.489Z,5.15
2023-03-18T15:43:51.459Z,6.75
2023-03-18T15:46:25.112Z,5.53
2023-03-18T15:48:59.403Z,6.30
2023-03-18T15:51:59.602Z,6.80
2023-03-18T15:54:42.868Z,5.78
2023-03-18T15:57:27.944Z,5.07
2023-03-18T15:59:56.938Z,4.03
2023-03-18T16:02:23.893Z,4.90
2023-03-18T16:04:50.571Z,5.57
2023-03-18T16:07:28.096Z,4.40
2023-03-18T16:10:00.056Z,5.75
2023-03-18T16:12:31.174Z,6.85
2023-03-18T16:15:00.311Z,6.32
2023-03-18T16:17:30.385Z,4.35
2023-03-18T16:19:57.395Z,4.40
2023-03-18T16:22:24.146Z,16.50
2023-03-18T16:24:50.883Z,8.15
2023-03-18T16:27:34.794Z,7.50
2023-03-18T16:30:01.864Z,6.90
2023-03-18T16:32:31.452Z,7.63
2023-03-18T16:34:59.174Z,4.38
2023-03-18T16:37:26.914Z,6.90
2023-03-18T16:39:55.745Z,3.15
2023-03-18T16:42:27.097Z,4.03
2023-03-18T16:44:53.815Z,5.60
2023-03-18T16:47:27.067Z,4.95
2023-03-18T16:49:56.379Z,4.45
2023-03-18T16:52:25.532Z,4.60
2023-03-18T16:54:52.217Z,3.85
2023-03-18T16:57:21.540Z,5.13
2023-03-18T16:59:52.957Z,3.67
2023-03-18T17:02:34.362Z,5.13
2023-03-18T17:05:04.208Z,5.25
2023-03-18T17:07:31.036Z,5.05
2023-03-18T17:09:57.688Z,5.28
2023-03-18T17:12:25.120Z,3.58
2023-03-18T17:14:57.771Z,5.70
2023-03-18T17:17:33.011Z,5.25
2023-03-18T17:20:02.524Z,6.88
2023-03-18T17:22:32.531Z,4.35
2023-03-18T17:25:01.284Z,5.05
2023-03-18T17:27:34.001Z,5.75
2023-03-18T17:30:10.009Z,4.05
2023-03-18T17:32:38.930Z,5.38
2023-03-18T17:35:12.885Z,6.32
2023-03-18T17:37:41.663Z,6.30
2023-03-18T17:40:12.115Z,9.00
2023-03-18T17:42:39.792Z,8.05
2023-03-18T17:45:21.781Z,5.75
2023-03-18T17:47:48.419Z,5.10
2023-03-18T17:50:17.216Z,5.78
2023-03-18T17:52:45.284Z,8.23
2023-03-18T17:55:26.051Z,5.53
2023-03-18T17:57:52.781Z,5.55
2023-03-18T18:00:26.210Z,7.07
2023-03-18T18:02:58.562Z,6.07
2023-03-18T18:05:25.264Z,8.90
2023-03-18T18:07:53.004Z,7.25
2023-03-18T18:10:20.674Z,7.18
2023-03-18T18:12:49.857Z,5.57
2023-03-18T18:15:19.798Z,5.82
2023-03-18T18:17:48.435Z,5.65
2023-03-18T18:20:16.541Z,6.72
2023-03-18T18:22:54.825Z,5.85
2023-03-18T18:25:25.180Z,5.55
2023-03-18T18:27:51.885Z,5.97
2023-03-18T18:30:22.069Z,5.47
2023-03-18T18:32:49.310Z,6.57
2023-03-18T18:35:22.952Z,4.50
2023-03-18T18:37:54.536Z,5.93
2023-03-18T18:40:23.681Z,9.35
2023-03-18T18:42:50.452Z,7.15
2023-03-18T18:45:19.127Z,5.80
2023-03-18T18:47:45.813Z,5.72
2023-03-18T18:50:21.517Z,9.75
2023-03-18T18:52:53.252Z,6.25
2023-03-18T18:55:22.418Z,8.35
2023-03-18T18:57:51.949Z,6.78
2023-03-18T19:00:21.815Z,7.28
2023-03-18T19:02:51.532Z,6.40
2023-03-18T19:05:18.550Z,7.20
2023-03-18T19:07:46.384Z,7.03
2023-03-18T19:10:15.015Z,8.05
2023-03-18T19:12:44.178Z,6.95
2023-03-18T19:15:15.586Z,8.20
2023-03-18T19:17:43.384Z,8.73
2023-03-18T19:20:30.364Z,7.38
2023-03-18T19:22:57.486Z,8.07
2023-03-18T19:25:27.827Z,7.20
2023-03-18T19:27:58.021Z,6.05
2023-03-18T19:30:27.003Z,6.40
2023-03-18T19:32:56.542Z,7.50
2023-03-18T19:35:23.292Z,8.73
2023-03-18T19:37:49.991Z,9.13
2023-03-18T19:40:30.598Z,5.53
2023-03-18T19:42:57.393Z,5.35
2023-03-18T19:45:26.980Z,7.30
2023-03-18T19:47:56.089Z,6.47
2023-03-18T19:50:22.957Z,9.73
2023-03-18T19:52:53.124Z,7.57
2023-03-18T19:55:19.923Z,8.77
2023-03-18T19:57:48.654Z,7.18
2023-03-18T20:00:24.191Z,6.32
2023-03-18T20:02:51.060Z,6.93
2023-03-18T20:05:20.586Z,10.00
2023-03-18T20:07:50.488Z,7.00
2023-03-18T20:10:18.989Z,9.45
2023-03-18T20:12:53.833Z,8.13
2023-03-18T20:15:26.881Z,8.82
2023-03-18T20:17:54.268Z,9.88
2023-03-18T20:20:23.792Z,11.25
2023-03-18T20:22:59.378Z,8.27
2023-03-18T20:27:57.366Z,8.45
2023-03-18T20:30:42.732Z,10.13
2023-03-18T20:33:14.301Z,8.45
2023-03-18T20:35:46.463Z,9.05
2023-03-18T20:38:39.092Z,9.45
2023-03-18T20:41:11.101Z,10.07
2023-03-18T20:43:40.318Z,9.20
2023-03-18T20:46:14.312Z,5.75
2023-03-18T20:48:41.640Z,6.68
2023-03-18T20:51:37.899Z,6.22
2023-03-18T20:54:18.623Z,6.25
2023-03-18T20:56:46.609Z,7.35
2023-03-18T20:59:15.563Z,9.07
2023-03-18T21:01:44.605Z,8.32
2023-03-18T21:04:14.879Z,8.02
2023-03-18T21:06:42.302Z,7.03
2023-03-18T21:09:13.208Z,6.50
2023-03-18T21:11:42.551Z,6.25
2023-03-18T21:14:17.119Z,7.07
2023-03-18T21:16:46.139Z,9.15
2023-03-18T21:19:12.841Z,12.75
2023-03-18T21:21:39.653Z,6.70
2023-03-18T21:24:23.634Z,8.13
2023-03-18T21:27:03.135Z,8.55
2023-03-18T21:29:30.526Z,11.80
2023-03-18T21:32:02.596Z,8.35
2023-03-18T21:34:34.129Z,11.25
2023-03-18T21:37:00.753Z,9.30
2023-03-18T21:39:27.378Z,10.32
2023-03-18T21:41:54.297Z,11.52
2023-03-18T21:44:23.195Z,8.35
2023-03-18T21:46:52.355Z,6.28
2023-03-18T21:49:21.673Z,8.32
2023-03-18T21:51:52.662Z,5.70
2023-03-18T21:54:19.527Z,11.18
2023-03-18T21:56:46.286Z,7.80
2023-03-18T21:59:15.512Z,9.43
2023-03-18T22:01:44.727Z,7.15
2023-03-18T22:04:11.745Z,8.30
2023-03-18T22:06:38.511Z,6.60
2023-03-18T22:09:09.752Z,7.93
2023-03-18T22:11:36.509Z,9.27
2023-03-18T22:14:03.189Z,5.63
2023-03-18T22:16:29.985Z,6.68
2023-03-18T22:18:56.757Z,9.27
2023-03-18T22:21:26.074Z,8.25
2023-03-18T22:23:53.529Z,7.22
2023-03-18T22:26:21.299Z,8.68
2023-03-18T22:28:50.869Z,8.20
2023-03-18T22:31:24.937Z,4.53
2023-03-18T22:33:54.867Z,9.30
2023-03-18T22:36:25.431Z,8.63
2023-03-18T22:38:54.548Z,5.95
2023-03-18T22:41:31.165Z,5.47
2023-03-18T22:43:59.882Z,6.22
2023-03-18T22:46:28.266Z,7.53
2023-03-18T22:48:55.181Z,6.20
2023-03-18T22:51:32.376Z,5.28
2023-03-18T22:53:59.023Z,8.68
2023-03-18T22:56:28.366Z,5.20
2023-03-18T22:58:57.444Z,7.05
2023-03-18T23:01:29.562Z,6.70
2023-03-18T23:03:56.347Z,5.15
2023-03-18T23:06:23.957Z,6.40
2023-03-18T23:08:53.120Z,5.30
2023-03-18T23:11:21.957Z,7.10
2023-03-18T23:13:52.116Z,5.55
2023-03-18T23:16:25.957Z,7.82
2023-03-18T23:18:55.027Z,6.78
2023-03-18T23:21:25.483Z,7.20
2023-03-18T23:23:52.920Z,8.85
2023-03-18T23:26:22.373Z,8.32
2023-03-18T23:28:51.629Z,8.32
2023-03-18T23:31:20.882Z,8.02
2023-03-18T23:33:52.001Z,7.45
2023-03-18T23:36:20.854Z,6.38
2023-03-18T23:38:52.220Z,7.35
2023-03-18T23:41:21.150Z,9.35
2023-03-18T23:43:47.894Z,5.47
2023-03-18T23:46:14.568Z,7.32
2023-03-18T23:48:41.249Z,8.88
2023-03-18T23:51:07.915Z,7.80
2023-03-18T23:53:34.583Z,7.50
2023-03-18T23:56:01.269Z,9.13
2023-03-18T23:58:27.981Z,7.90
